createdAt,value
2017-11-24T00:01:56.868Z,3.50
2017-11-24T00:04:58.778Z,4.80
2017-11-24T00:08:01.477Z,9.53
2017-11-24T00:11:04.305Z,14.40
2017-11-24T00:14:06.203Z,14.70
2017-11-24T00:17:08.133Z,9.43
2017-11-24T00:20:10.918Z,6.67
2017-11-24T00:23:12.907Z,7.07
2017-11-24T00:26:14.972Z,9.47
2017-11-24T00:29:16.916Z,10.23
2017-11-24T00:32:18.815Z,5.83
2017-11-24T00:35:20.734Z,6.97
2017-11-24T00:38:22.623Z,5.77
2017-11-24T00:41:24.567Z,11.70
2017-11-24T00:44:26.495Z,9.13
2017-11-24T00:47:29.240Z,9.60
2017-11-24T00:50:31.171Z,10.10
2017-11-24T00:53:33.173Z,3.73
2017-11-24T00:56:35.852Z,12.17
2017-11-24T00:59:37.811Z,8.40
2017-11-24T01:02:39.811Z,7.10
2017-11-24T01:05:41.730Z,5.27
2017-11-24T01:08:43.648Z,5.97
2017-11-24T01:11:45.587Z,9.97
2017-11-24T01:14:48.360Z,14.07
2017-11-24T01:17:50.292Z,10.57
2017-11-24T01:20:52.237Z,11.03
2017-11-24T01:23:55.027Z,9.33
2017-11-24T01:26:56.990Z,4.37
2017-11-24T01:29:58.972Z,6.23
2017-11-24T01:33:00.903Z,5.53
2017-11-24T01:36:02.820Z,12.30
2017-11-24T01:39:04.854Z,8.43
2017-11-24T01:42:07.558Z,6.17
2017-11-24T01:45:10.234Z,12.77
2017-11-24T01:48:13.363Z,5.70
2017-11-24T01:51:16.022Z,9.70
2017-11-24T01:54:17.950Z,9.40
2017-11-24T01:57:20.825Z,4.17
2017-11-24T02:00:22.772Z,13.47
2017-11-24T02:03:24.670Z,7.50
2017-11-24T02:06:26.577Z,10.27
2017-11-24T02:09:29.983Z,10.30
2017-11-24T02:12:31.891Z,8.53
2017-11-24T02:15:34.550Z,7.87
2017-11-24T02:18:36.468Z,6.03
2017-11-24T02:21:39.163Z,7.63
2017-11-24T02:24:41.121Z,4.80
2017-11-24T02:27:43.042Z,11.67
2017-11-24T02:30:45.155Z,9.47
2017-11-24T02:33:47.047Z,9.67
2017-11-24T02:36:48.991Z,5.23
2017-11-24T02:39:51.679Z,7.87
2017-11-24T02:42:54.364Z,11.53
2017-11-24T02:45:56.423Z,15.80
2017-11-24T02:48:58.358Z,5.73
2017-11-24T02:52:01.044Z,6.87
2017-11-24T02:55:02.991Z,6.00
2017-11-24T02:58:04.917Z,12.20
2017-11-24T03:01:08.537Z,14.30
2017-11-24T03:04:11.237Z,5.33
2017-11-24T03:07:13.937Z,8.60
2017-11-24T03:10:16.601Z,7.90
2017-11-24T03:13:18.534Z,7.13
2017-11-24T03:16:21.208Z,5.30
2017-11-24T03:19:23.135Z,6.30
2017-11-24T03:22:25.065Z,9.70
2017-11-24T03:25:27.005Z,16.30
2017-11-24T03:28:28.902Z,10.43
2017-11-24T03:31:30.845Z,4.63
2017-11-24T03:34:33.542Z,11.70
2017-11-24T03:37:36.240Z,6.30
2017-11-24T03:40:38.932Z,8.90
2017-11-24T03:43:41.615Z,11.83
2017-11-24T03:46:43.597Z,9.73
2017-11-24T03:49:45.530Z,9.53
2017-11-24T03:52:47.487Z,11.67
2017-11-24T03:55:50.164Z,5.43
2017-11-24T03:58:52.084Z,13.63
2017-11-24T04:01:54.029Z,12.70
2017-11-24T04:04:55.954Z,9.20
2017-11-24T04:07:57.890Z,9.00
2017-11-24T04:11:00.492Z,7.87
2017-11-24T04:14:02.416Z,7.67
2017-11-24T04:17:04.341Z,8.07
2017-11-24T04:20:06.276Z,8.77
2017-11-24T04:23:08.190Z,8.53
2017-11-24T04:26:10.110Z,10.50
2017-11-24T04:29:12.773Z,10.90
2017-11-24T04:32:14.705Z,7.40
2017-11-24T04:35:17.382Z,9.93
2017-11-24T04:38:19.355Z,11.67
2017-11-24T04:41:22.186Z,9.10
2017-11-24T04:44:24.862Z,7.33
2017-11-24T04:47:26.778Z,7.87
2017-11-24T04:50:28.699Z,12.93
2017-11-24T04:53:30.582Z,7.30
2017-11-24T04:56:32.495Z,9.13
2017-11-24T04:59:35.205Z,6.13
2017-11-24T05:02:37.910Z,11.23
2017-11-24T05:05:40.581Z,6.80
2017-11-24T05:08:42.552Z,6.60
2017-11-24T05:11:44.499Z,12.87
2017-11-24T05:14:46.438Z,10.83
2017-11-24T05:17:48.396Z,15.63
2017-11-24T05:20:50.331Z,8.40
2017-11-24T05:23:52.226Z,9.80
2017-11-24T05:26:54.141Z,10.03
2017-11-24T05:29:56.060Z,10.27
2017-11-24T05:32:58.855Z,11.20
2017-11-24T05:36:01.556Z,10.37
2017-11-24T05:39:05.079Z,14.57
2017-11-24T05:42:07.788Z,11.00
2017-11-24T05:45:10.602Z,15.90
2017-11-24T05:48:12.530Z,11.37
2017-11-24T05:51:14.738Z,18.40
2017-11-24T05:54:16.659Z,10.67
2017-11-24T05:57:18.607Z,15.73
2017-11-24T06:00:21.289Z,11.03
2017-11-24T06:03:23.226Z,14.20
2017-11-24T06:06:25.113Z,13.67
2017-11-24T06:09:27.062Z,10.27
2017-11-24T06:12:29.811Z,12.03
2017-11-24T06:15:31.726Z,10.43
2017-11-24T06:18:35.126Z,8.63
2017-11-24T06:21:37.089Z,9.20
2017-11-24T06:24:38.982Z,8.60
2017-11-24T06:27:40.927Z,11.50
2017-11-24T06:30:42.866Z,15.50
2017-11-24T06:33:44.794Z,12.43
2017-11-24T06:36:46.715Z,15.27
2017-11-24T06:39:49.434Z,7.40
2017-11-24T06:42:51.641Z,17.17
2017-11-24T06:45:54.322Z,13.57
2017-11-24T06:48:57.019Z,9.03
2017-11-24T06:51:58.944Z,11.77
2017-11-24T06:55:00.853Z,16.80
2017-11-24T06:58:02.790Z,10.10
2017-11-24T07:01:04.841Z,11.10
2017-11-24T07:04:06.822Z,10.23
2017-11-24T07:07:08.797Z,14.17
2017-11-24T07:10:10.714Z,9.63
2017-11-24T07:13:13.366Z,7.37
2017-11-24T07:16:15.462Z,11.00
2017-11-24T07:19:17.354Z,14.17
2017-11-24T07:22:19.283Z,6.33
2017-11-24T07:25:21.274Z,12.40
2017-11-24T07:28:23.205Z,5.83
2017-11-24T07:31:25.102Z,12.43
2017-11-24T07:34:27.894Z,8.43
2017-11-24T07:37:29.876Z,9.23
2017-11-24T07:40:31.823Z,13.33
2017-11-24T07:43:33.851Z,11.73
2017-11-24T07:46:35.846Z,7.90
2017-11-24T07:49:37.807Z,11.33
2017-11-24T07:52:39.838Z,9.90
2017-11-24T07:55:41.778Z,13.60
2017-11-24T07:58:43.806Z,11.90
2017-11-24T08:01:45.738Z,8.70
2017-11-24T08:04:47.693Z,8.60
2017-11-24T08:07:49.791Z,11.87
2017-11-24T08:10:51.698Z,13.07
2017-11-24T08:13:53.615Z,12.43
2017-11-24T08:16:56.445Z,7.87
2017-11-24T08:19:58.506Z,12.73
2017-11-24T08:23:00.544Z,10.23
2017-11-24T08:26:02.446Z,13.63
2017-11-24T08:29:05.160Z,8.43
2017-11-24T08:32:07.839Z,14.27
2017-11-24T08:35:10.637Z,14.50
2017-11-24T08:38:12.534Z,10.37
2017-11-24T08:41:15.222Z,13.60
2017-11-24T08:44:17.120Z,9.77
2017-11-24T08:47:19.882Z,10.17
2017-11-24T08:50:21.782Z,11.07
2017-11-24T08:53:23.855Z,11.03
2017-11-24T08:56:25.830Z,11.73
2017-11-24T08:59:27.750Z,10.00
2017-11-24T09:02:30.412Z,14.27
2017-11-24T09:05:32.330Z,11.27
2017-11-24T09:08:35.013Z,13.30
2017-11-24T09:11:37.719Z,10.17
2017-11-24T09:14:41.309Z,9.13
2017-11-24T09:17:43.226Z,7.93
2017-11-24T09:20:45.891Z,8.87
2017-11-24T09:23:47.827Z,6.30
2017-11-24T09:26:49.743Z,7.23
2017-11-24T09:29:51.699Z,4.00
2017-11-24T09:32:53.629Z,2.95
2017-11-24T09:35:56.166Z,2.77
2017-11-24T09:38:58.088Z,2.80
2017-11-24T09:42:00.026Z,3.80
2017-11-24T09:45:02.686Z,2.60
2017-11-24T09:48:04.639Z,4.57
2017-11-24T09:51:06.641Z,2.70
2017-11-24T09:54:08.563Z,4.67
2017-11-24T09:57:11.228Z,5.97
2017-11-24T10:00:13.249Z,4.43
2017-11-24T10:03:15.947Z,5.77
2017-11-24T10:06:18.652Z,2.23
2017-11-24T10:09:21.343Z,2.87
2017-11-24T10:12:24.119Z,2.00
2017-11-24T10:15:26.106Z,2.60
2017-11-24T10:18:28.024Z,3.72
2017-11-24T10:21:30.770Z,3.40
2017-11-24T10:24:32.717Z,4.07
2017-11-24T10:27:34.651Z,3.53
2017-11-24T10:30:36.657Z,2.60
2017-11-24T10:33:39.435Z,3.70
2017-11-24T10:36:41.442Z,4.33
2017-11-24T10:39:43.340Z,3.77
2017-11-24T10:42:46.051Z,4.80
2017-11-24T10:45:47.974Z,3.93
2017-11-24T10:48:49.955Z,4.43
2017-11-24T10:51:51.861Z,6.93
2017-11-24T10:54:53.846Z,4.90
2017-11-24T10:57:55.772Z,4.90
2017-11-24T11:00:57.692Z,3.20
2017-11-24T11:03:59.588Z,4.10
2017-11-24T11:07:01.520Z,1.80
2017-11-24T11:10:03.531Z,6.80
2017-11-24T11:13:05.458Z,8.07
2017-11-24T11:16:08.143Z,4.13
2017-11-24T11:19:10.339Z,8.70
2017-11-24T11:22:13.035Z,4.30
2017-11-24T11:25:14.977Z,3.60
2017-11-24T11:28:16.870Z,2.73
2017-11-24T11:31:18.873Z,1.23
2017-11-24T11:34:20.793Z,4.07
2017-11-24T11:37:22.711Z,3.93
2017-11-24T11:40:24.638Z,3.33
2017-11-24T11:43:27.339Z,3.67
2017-11-24T11:46:30.011Z,5.73
2017-11-24T11:49:31.986Z,2.50
2017-11-24T11:52:33.910Z,8.63
2017-11-24T11:55:35.854Z,4.07
2017-11-24T11:58:38.470Z,4.90
2017-11-24T12:01:40.564Z,4.37
2017-11-24T12:04:43.245Z,4.23
2017-11-24T12:07:45.190Z,4.87
2017-11-24T12:10:47.105Z,8.17
2017-11-24T12:13:49.048Z,4.17
2017-11-24T12:16:50.963Z,5.70
2017-11-24T12:19:52.898Z,11.67
2017-11-24T12:22:54.849Z,5.10
2017-11-24T12:25:56.840Z,9.07
2017-11-24T12:28:59.530Z,4.40
2017-11-24T12:32:01.472Z,2.57
2017-11-24T12:35:03.392Z,5.07
2017-11-24T12:38:05.336Z,6.17
2017-11-24T12:41:07.358Z,8.77
2017-11-24T12:44:10.192Z,3.77
2017-11-24T12:47:12.360Z,7.67
2017-11-24T12:50:15.119Z,3.47
2017-11-24T12:53:17.159Z,9.57
2017-11-24T12:56:19.864Z,4.57
2017-11-24T12:59:22.139Z,6.47
2017-11-24T13:02:24.852Z,5.23
2017-11-24T13:05:27.626Z,4.87
2017-11-24T13:08:30.503Z,7.13
2017-11-24T13:11:32.394Z,7.80
2017-11-24T13:14:34.367Z,7.40
2017-11-24T13:17:36.372Z,4.63
2017-11-24T13:20:38.305Z,5.50
2017-11-24T13:23:40.222Z,5.90
2017-11-24T13:26:42.209Z,6.27
2017-11-24T13:29:44.208Z,4.50
2017-11-24T13:32:46.147Z,4.67
2017-11-24T13:35:48.038Z,4.93
2017-11-24T13:38:49.971Z,9.37
2017-11-24T13:41:52.652Z,4.20
2017-11-24T13:44:54.635Z,4.80
2017-11-24T13:47:56.598Z,5.40
2017-11-24T13:50:58.904Z,6.17
2017-11-24T13:54:00.791Z,8.30
2017-11-24T13:57:02.742Z,4.60
2017-11-24T14:00:04.670Z,5.80
2017-11-24T14:03:07.462Z,7.93
2017-11-24T14:06:09.443Z,7.40
2017-11-24T14:09:12.220Z,5.13
2017-11-24T14:12:14.185Z,7.00
2017-11-24T14:15:16.426Z,7.47
2017-11-24T14:18:18.315Z,5.67
2017-11-24T14:21:20.995Z,8.00
2017-11-24T14:24:22.883Z,6.30
2017-11-24T14:27:24.816Z,6.17
2017-11-24T14:30:26.715Z,7.83
2017-11-24T14:33:28.626Z,5.40
2017-11-24T14:36:30.550Z,7.97
2017-11-24T14:39:32.555Z,10.23
2017-11-24T14:42:34.443Z,8.93
2017-11-24T14:45:36.501Z,6.63
2017-11-24T14:48:38.393Z,7.43
2017-11-24T14:51:40.327Z,5.50
2017-11-24T14:54:43.067Z,9.03
2017-11-24T14:57:44.983Z,6.73
2017-11-24T15:00:47.716Z,8.57
2017-11-24T15:03:50.213Z,6.57
2017-11-24T15:06:52.174Z,5.97
2017-11-24T15:09:54.116Z,9.30
2017-11-24T15:12:56.126Z,6.57
2017-11-24T15:15:58.350Z,6.13
2017-11-24T15:19:01.234Z,9.40
2017-11-24T15:22:03.195Z,7.93
2017-11-24T15:25:05.113Z,5.70
2017-11-24T15:28:07.797Z,8.67
2017-11-24T15:31:10.450Z,9.53
2017-11-24T15:34:12.410Z,9.90
2017-11-24T15:37:15.158Z,7.93
2017-11-24T15:40:17.103Z,8.93
2017-11-24T15:43:18.992Z,12.13
2017-11-24T15:46:21.007Z,6.33
2017-11-24T15:49:22.932Z,10.00
2017-11-24T15:52:25.619Z,8.23
2017-11-24T15:55:27.547Z,15.00
2017-11-24T15:58:29.473Z,12.70
2017-11-24T16:01:31.438Z,13.30
2017-11-24T16:04:33.356Z,12.90
2017-11-24T16:07:36.014Z,8.77
2017-11-24T16:10:37.962Z,18.43
2017-11-24T16:13:40.077Z,10.20
2017-11-24T16:16:42.028Z,15.40
2017-11-24T16:19:43.955Z,21.53
2017-11-24T16:22:45.903Z,13.10
2017-11-24T16:25:47.823Z,13.83
2017-11-24T16:28:49.795Z,11.37
2017-11-24T16:31:51.683Z,9.23
2017-11-24T16:34:53.691Z,17.67
2017-11-24T16:37:55.626Z,12.30
2017-11-24T16:40:57.560Z,14.47
2017-11-24T16:43:59.479Z,20.37
2017-11-24T16:47:01.490Z,16.13
2017-11-24T16:50:03.411Z,16.07
2017-11-24T16:53:06.144Z,17.00
2017-11-24T16:56:08.398Z,20.37
2017-11-24T16:59:10.332Z,18.53
2017-11-24T17:02:12.333Z,19.30
2017-11-24T17:05:14.349Z,17.30
2017-11-24T17:08:17.120Z,20.70
2017-11-24T17:11:19.064Z,19.30
2017-11-24T17:14:20.987Z,27.03
2017-11-24T17:17:22.936Z,21.80
2017-11-24T17:20:24.854Z,17.83
2017-11-24T17:23:27.612Z,27.23
2017-11-24T17:26:29.503Z,23.77
2017-11-24T17:29:31.427Z,17.20
2017-11-24T17:32:33.328Z,16.17
2017-11-24T17:35:35.265Z,21.97
2017-11-24T17:38:37.178Z,26.73
2017-11-24T17:41:39.106Z,23.03
2017-11-24T17:44:41.045Z,21.13
2017-11-24T17:47:43.001Z,21.83
2017-11-24T17:50:44.911Z,24.67
2017-11-24T17:53:46.853Z,24.47
2017-11-24T17:56:48.765Z,24.10
2017-11-24T17:59:51.411Z,26.93
2017-11-24T18:02:53.304Z,29.30
2017-11-24T18:05:55.251Z,22.77
2017-11-24T18:08:57.975Z,33.10
2017-11-24T18:11:59.908Z,28.00
2017-11-24T18:15:01.831Z,24.87
2017-11-24T18:18:03.757Z,27.87
2017-11-24T18:21:05.681Z,25.17
2017-11-24T18:24:08.381Z,34.07
2017-11-24T18:27:11.070Z,30.17
2017-11-24T18:30:13.020Z,32.13
2017-11-24T18:33:14.918Z,37.27
2017-11-24T18:36:16.868Z,42.07
2017-11-24T18:39:19.632Z,41.80
2017-11-24T18:42:22.327Z,35.43
2017-11-24T18:45:24.985Z,33.37
2017-11-24T18:48:26.911Z,39.33
2017-11-24T18:51:29.571Z,38.73
2017-11-24T18:54:31.509Z,37.80
2017-11-24T18:57:33.408Z,37.97
2017-11-24T19:00:35.368Z,48.20
2017-11-24T19:03:37.286Z,49.40
2017-11-24T19:06:39.233Z,39.73
2017-11-24T19:09:41.130Z,43.77
2017-11-24T19:12:43.047Z,45.17
2017-11-24T19:15:44.971Z,38.53
2017-11-24T19:18:47.699Z,39.20
2017-11-24T19:21:49.618Z,49.40
2017-11-24T19:24:51.569Z,41.90
2017-11-24T19:27:53.489Z,54.37
2017-11-24T19:30:56.196Z,55.40
2017-11-24T19:33:58.119Z,56.47
2017-11-24T19:37:00.061Z,59.13
2017-11-24T19:40:01.999Z,44.30
2017-11-24T19:43:03.945Z,41.70
2017-11-24T19:46:06.614Z,44.83
2017-11-24T19:49:08.557Z,62.37
2017-11-24T19:52:10.499Z,53.70
2017-11-24T19:55:13.205Z,49.00
2017-11-24T19:58:15.891Z,43.90
2017-11-24T20:01:17.822Z,49.07
2017-11-24T20:04:19.732Z,68.80
2017-11-24T20:07:21.676Z,111.23
2017-11-24T20:10:23.590Z,215.83
2017-11-24T20:13:25.514Z,181.40
2017-11-24T20:16:28.210Z,111.17
2017-11-24T20:19:30.971Z,119.20
2017-11-24T20:22:32.918Z,249.73
2017-11-24T20:25:34.946Z,173.53
2017-11-24T20:28:36.872Z,220.10
2017-11-24T20:31:39.040Z,230.47
2017-11-24T20:34:41.728Z,221.63
2017-11-24T20:37:43.658Z,160.23
2017-11-24T20:40:57.620Z,138.20
2017-11-24T20:43:59.583Z,176.60
2017-11-24T20:47:01.519Z,85.20
2017-11-24T20:50:03.478Z,125.73
2017-11-24T20:53:05.426Z,71.70
2017-11-24T20:56:08.161Z,66.40
2017-11-24T20:59:10.097Z,91.50
2017-11-24T21:02:12.302Z,156.40
2017-11-24T21:05:15.093Z,127.83
2017-11-24T21:08:17.083Z,66.30
2017-11-24T21:11:19.744Z,76.17
2017-11-24T21:14:21.830Z,66.83
2017-11-24T21:17:23.754Z,57.07
2017-11-24T21:20:26.523Z,59.83
2017-11-24T21:23:28.490Z,59.83
2017-11-24T21:26:30.418Z,60.20
2017-11-24T21:29:33.121Z,66.03
2017-11-24T21:32:35.839Z,66.87
2017-11-24T21:35:37.745Z,76.30
2017-11-24T21:38:39.742Z,110.17
2017-11-24T21:41:41.669Z,85.47
2017-11-24T21:44:44.442Z,90.50
2017-11-24T21:47:46.366Z,94.17
2017-11-24T21:50:49.221Z,114.57
2017-11-24T21:53:51.206Z,144.70
2017-11-24T21:56:53.166Z,138.33
2017-11-24T21:59:55.181Z,166.90
2017-11-24T22:02:57.190Z,178.27
2017-11-24T22:05:59.275Z,174.57
2017-11-24T22:09:01.999Z,226.07
2017-11-24T22:12:03.898Z,238.40
2017-11-24T22:15:05.823Z,216.73
2017-11-24T22:18:07.735Z,177.37
2017-11-24T22:21:10.455Z,218.47
2017-11-24T22:24:12.392Z,203.70
2017-11-24T22:27:14.381Z,180.50
2017-11-24T22:30:17.083Z,181.40
2017-11-24T22:33:19.795Z,211.70
2017-11-24T22:36:21.754Z,178.07
2017-11-24T22:39:23.726Z,159.93
2017-11-24T22:42:25.622Z,135.77
2017-11-24T22:45:27.614Z,125.67
2017-11-24T22:48:30.282Z,143.13
2017-11-24T22:51:32.249Z,134.87
2017-11-24T22:54:34.150Z,126.80
2017-11-24T22:57:36.250Z,125.00
2017-11-24T23:00:38.153Z,139.57
2017-11-24T23:03:40.853Z,127.77
2017-11-24T23:06:43.624Z,125.13
2017-11-24T23:09:45.549Z,148.23
2017-11-24T23:12:47.475Z,137.80
2017-11-24T23:15:49.470Z,128.20
2017-11-24T23:18:52.187Z,124.10
2017-11-24T23:21:54.162Z,130.60
2017-11-24T23:24:56.235Z,121.20
2017-11-24T23:27:58.199Z,118.07
2017-11-24T23:31:00.440Z,115.33
2017-11-24T23:34:03.171Z,118.03
2017-11-24T23:37:05.080Z,107.23
2017-11-24T23:40:07.096Z,95.53
2017-11-24T23:43:09.000Z,88.63
2017-11-24T23:46:11.770Z,85.20
2017-11-24T23:49:13.682Z,90.90
2017-11-24T23:52:15.745Z,94.77
2017-11-24T23:55:17.664Z,115.30
2017-11-24T23:58:19.685Z,94.63
